TimeGMT,TemperatureF,Dew PointF,Humidity,Sea Level PressureIn,VisibilityMPH,Wind Direction,Wind SpeedMPH,Gust SpeedMPH,PrecipitationIn,Events,Conditions,WindDirDegrees,DateUTC
12:20 AM,33.8,33.8,100,29.86,2.8,West,2.3,-,N/A,,Mostly Cloudy,280,2012-12-01 00:20:00
12:50 AM,35.6,35.6,100,29.86,2.5,West,4.6,-,N/A,,Overcast,270,2012-12-01 00:50:00
1:20 AM,35.6,35.6,100,29.86,1.5,West,5.8,-,N/A,,Overcast,260,2012-12-01 01:20:00
1:50 AM,33.8,33.8,100,29.86,1.1,West,5.8,-,N/A,,Light Drizzle,280,2012-12-01 01:50:00
2:20 AM,33.8,33.8,100,29.89,1.5,WNW,5.8,-,N/A,,Overcast,290,2012-12-01 02:20:00
2:50 AM,33.8,33.8,100,29.89,4.3,Calm,Calm,-,N/A,,Mostly Cloudy,0,2012-12-01 02:50:00
3:20 AM,35.6,33.8,93,29.89,6.2,Variable,3.5,-,N/A,,Overcast,0,2012-12-01 03:20:00
3:50 AM,35.6,32.0,87,29.89,6.2,NNW,4.6,-,N/A,,Unknown,330,2012-12-01 03:50:00
4:20 AM,33.8,32.0,93,29.89,6.2,West,2.3,-,N/A,,Unknown,260,2012-12-01 04:20:00
4:50 AM,33.8,30.2,87,29.89,6.2,Variable,2.3,-,N/A,,Partly Cloudy,0,2012-12-01 04:50:00
5:20 AM,35.6,30.2,81,29.92,6.2,Variable,3.5,-,N/A,,Partly Cloudy,0,2012-12-01 05:20:00
5:50 AM,35.6,30.2,81,29.92,-9999.0,Variable,3.5,-,N/A,,Clear,0,2012-12-01 05:50:00
6:20 AM,33.8,30.2,87,29.92,-9999.0,North,4.6,-,N/A,,Clear,10,2012-12-01 06:20:00
6:50 AM,33.8,30.2,87,29.92,6.2,WSW,4.6,-,N/A,,Partly Cloudy,250,2012-12-01 06:50:00
7:20 AM,35.6,28.4,75,29.92,6.2,North,5.8,-,N/A,,Partly Cloudy,350,2012-12-01 07:20:00
7:50 AM,35.6,28.4,75,29.95,-9999.0,NW,5.8,-,N/A,,Clear,310,2012-12-01 07:50:00
8:20 AM,35.6,28.4,75,29.95,6.2,West,4.6,-,N/A,,Partly Cloudy,280,2012-12-01 08:20:00
8:50 AM,35.6,28.4,75,29.95,6.2,NW,4.6,-,N/A,,Partly Cloudy,310,2012-12-01 08:50:00
9:20 AM,33.8,28.4,81,29.95,6.2,Variable,3.5,-,N/A,,Partly Cloudy,0,2012-12-01 09:20:00
9:50 AM,32.0,28.4,87,29.98,6.2,WSW,5.8,-,N/A,,Partly Cloudy,240,2012-12-01 09:50:00
10:20 AM,33.8,30.2,87,29.98,6.2,WSW,5.8,-,N/A,,Partly Cloudy,240,2012-12-01 10:20:00
10:50 AM,35.6,30.2,81,29.98,6.2,WSW,8.1,-,N/A,,Partly Cloudy,250,2012-12-01 10:50:00
11:20 AM,37.4,30.2,75,29.98,6.2,West,6.9,-,N/A,,Partly Cloudy,260,2012-12-01 11:20:00
11:50 AM,37.4,30.2,75,29.98,6.2,WSW,3.5,-,N/A,,Partly Cloudy,240,2012-12-01 11:50:00
12:20 PM,39.2,30.2,70,29.98,6.2,West,4.6,-,N/A,,Partly Cloudy,280,2012-12-01 12:20:00
12:50 PM,39.2,28.4,65,29.98,6.2,NNW,6.9,-,N/A,,Partly Cloudy,330,2012-12-01 12:50:00
1:20 PM,39.2,28.4,65,29.98,6.2,NNW,9.2,-,N/A,,Partly Cloudy,330,2012-12-01 13:20:00
1:50 PM,39.2,28.4,65,29.98,6.2,NNW,8.1,-,N/A,,Partly Cloudy,330,2012-12-01 13:50:00
2:20 PM,39.2,26.6,61,29.98,6.2,NNW,9.2,-,N/A,,Partly Cloudy,340,2012-12-01 14:20:00
2:50 PM,39.2,28.4,65,29.98,6.2,WNW,8.1,-,N/A,,Partly Cloudy,290,2012-12-01 14:50:00
3:20 PM,37.4,26.6,65,29.98,6.2,NW,5.8,-,N/A,,Partly Cloudy,310,2012-12-01 15:20:00
3:50 PM,35.6,26.6,70,29.98,6.2,WNW,6.9,-,N/A,,Partly Cloudy,290,2012-12-01 15:50:00
4:20 PM,35.6,26.6,70,29.98,6.2,West,8.1,-,N/A,,Partly Cloudy,260,2012-12-01 16:20:00
4:50 PM,32.0,26.6,80,29.98,6.2,WSW,9.2,-,N/A,,Partly Cloudy,240,2012-12-01 16:50:00
5:20 PM,32.0,26.6,80,29.98,6.2,WSW,8.1,-,N/A,,Partly Cloudy,250,2012-12-01 17:20:00
5:50 PM,28.4,24.8,86,29.98,-9999.0,SW,6.9,-,N/A,,Clear,230,2012-12-01 17:50:00
6:20 PM,30.2,26.6,86,29.98,-9999.0,WSW,8.1,-,N/A,,Clear,240,2012-12-01 18:20:00
6:50 PM,28.4,24.8,86,29.98,-9999.0,SW,5.8,-,N/A,,Clear,230,2012-12-01 18:50:00
7:20 PM,28.4,24.8,86,29.98,-9999.0,SW,5.8,-,N/A,,Clear,230,2012-12-01 19:20:00
7:50 PM,30.2,26.6,86,29.98,-9999.0,SSW,5.8,-,N/A,,Clear,210,2012-12-01 19:50:00
8:20 PM,28.4,24.8,86,29.98,-9999.0,SW,6.9,-,N/A,,Clear,230,2012-12-01 20:20:00
8:50 PM,28.4,26.6,93,29.98,-9999.0,SW,6.9,-,N/A,,Clear,230,2012-12-01 20:50:00
9:20 PM,30.2,26.6,86,29.98,-9999.0,WSW,10.4,-,N/A,,Clear,240,2012-12-01 21:20:00
9:50 PM,30.2,26.6,86,29.98,-9999.0,WSW,10.4,-,N/A,,Clear,240,2012-12-01 21:50:00
10:20 PM,30.2,26.6,86,29.95,-9999.0,WSW,9.2,-,N/A,,Clear,240,2012-12-01 22:20:00
10:50 PM,28.4,24.8,86,29.95,-9999.0,WSW,8.1,-,N/A,,Clear,240,2012-12-01 22:50:00
11:20 PM,32.0,26.6,80,29.95,-9999.0,WSW,6.9,-,N/A,,Clear,250,2012-12-01 23:20:00
11:50 PM,28.4,24.8,86,29.95,-9999.0,SW,6.9,-,N/A,,Clear,230,2012-12-01 23:50:00